createdAt,value
2022-12-20T00:01:52.618Z,9.19
2022-12-20T00:04:20.510Z,9.19
2022-12-20T00:06:48.255Z,9.18
2022-12-20T00:09:15.889Z,9.20
2022-12-20T00:11:43.572Z,9.22
2022-12-20T00:14:11.521Z,9.22
2022-12-20T00:16:39.494Z,9.25
2022-12-20T00:19:07.824Z,9.26
2022-12-20T00:21:36.394Z,9.28
2022-12-20T00:24:06.334Z,9.32
2022-12-20T00:26:36.058Z,9.32
2022-12-20T00:29:05.411Z,9.35
2022-12-20T00:31:33.808Z,9.36
2022-12-20T00:34:02.404Z,9.37
2022-12-20T00:36:32.477Z,9.36
2022-12-20T00:39:01.374Z,9.36
2022-12-20T00:41:33.340Z,9.36
2022-12-20T00:44:04.086Z,9.35
2022-12-20T00:46:34.190Z,9.35
2022-12-20T00:49:02.102Z,9.32
2022-12-20T00:51:32.596Z,9.33
2022-12-20T00:54:00.497Z,9.33
2022-12-20T00:56:28.200Z,9.38
2022-12-20T00:58:59.882Z,9.40
2022-12-20T01:01:31.866Z,9.38
2022-12-20T01:04:00.148Z,9.42
2022-12-20T01:06:29.221Z,9.42
2022-12-20T01:08:58.150Z,9.43
2022-12-20T01:11:34.643Z,9.46
2022-12-20T01:14:11.468Z,9.43
2022-12-20T01:16:47.061Z,9.47
2022-12-20T01:19:18.405Z,9.48
2022-12-20T01:21:46.687Z,9.45
2022-12-20T01:24:19.916Z,9.50
2022-12-20T01:26:47.770Z,9.51
2022-12-20T01:29:16.151Z,9.54
2022-12-20T01:31:44.370Z,9.59
2022-12-20T01:34:12.436Z,9.60
2022-12-20T01:36:41.145Z,9.62
2022-12-20T01:39:15.375Z,9.65
2022-12-20T01:41:45.565Z,9.62
2022-12-20T01:44:19.320Z,9.60
2022-12-20T01:46:49.332Z,9.56
2022-12-20T01:49:22.245Z,9.60
2022-12-20T01:51:55.394Z,9.58
2022-12-20T01:54:31.982Z,9.56
2022-12-20T01:57:12.747Z,9.55
2022-12-20T01:59:44.596Z,9.51
2022-12-20T02:02:13.995Z,9.51
2022-12-20T02:04:42.121Z,9.51
2022-12-20T02:07:24.443Z,9.54
2022-12-20T02:09:53.611Z,9.53
2022-12-20T02:12:25.539Z,9.54
2022-12-20T02:15:11.079Z,9.59
2022-12-20T02:18:11.301Z,9.57
2022-12-20T02:21:31.340Z,9.59
2022-12-20T02:24:26.965Z,9.62
2022-12-20T02:27:17.845Z,9.63
2022-12-20T02:30:12.106Z,9.64
2022-12-20T02:33:05.215Z,9.64
2022-12-20T02:35:36.084Z,9.68
2022-12-20T02:38:27.972Z,9.71
2022-12-20T02:41:07.130Z,9.68
2022-12-20T02:43:56.571Z,9.68
2022-12-20T02:46:26.490Z,9.67
2022-12-20T02:49:00.414Z,9.68
2022-12-20T02:51:30.607Z,9.71
2022-12-20T02:54:00.069Z,9.71
2022-12-20T02:56:31.293Z,9.70
2022-12-20T02:59:23.341Z,9.68
2022-12-20T03:01:56.325Z,9.62
2022-12-20T03:04:32.277Z,9.59
2022-12-20T03:07:04.002Z,9.59
2022-12-20T03:09:33.947Z,9.41
2022-12-20T03:12:01.719Z,9.48
2022-12-20T03:14:31.490Z,9.51
2022-12-20T03:17:02.350Z,9.52
2022-12-20T03:19:30.310Z,9.54
2022-12-20T03:21:59.313Z,9.56
2022-12-20T03:24:27.258Z,9.58
2022-12-20T03:26:55.679Z,9.57
2022-12-20T03:29:25.458Z,9.55
2022-12-20T03:31:54.160Z,9.55
2022-12-20T03:34:21.890Z,9.54
2022-12-20T03:36:50.124Z,9.52
2022-12-20T03:39:17.931Z,9.54
2022-12-20T03:41:46.199Z,9.57
2022-12-20T03:44:18.542Z,9.55
2022-12-20T03:46:46.508Z,9.55
2022-12-20T03:49:14.523Z,9.53
2022-12-20T03:51:47.511Z,9.57
2022-12-20T03:54:15.365Z,9.59
2022-12-20T03:57:07.590Z,9.58
2022-12-20T03:59:35.776Z,9.60
2022-12-20T04:02:05.848Z,9.60
2022-12-20T04:04:34.913Z,9.63
2022-12-20T04:07:02.721Z,9.66
2022-12-20T04:09:31.013Z,9.65
2022-12-20T04:12:06.101Z,9.68
2022-12-20T04:14:37.321Z,9.71
2022-12-20T04:17:05.965Z,9.74
2022-12-20T04:19:34.693Z,9.74
2022-12-20T04:22:06.133Z,9.73
2022-12-20T04:24:54.475Z,9.72
2022-12-20T04:27:28.085Z,9.74
2022-12-20T04:29:57.719Z,9.76
2022-12-20T04:32:25.495Z,9.78
2022-12-20T04:34:53.432Z,9.79
2022-12-20T04:37:21.542Z,9.75
2022-12-20T04:39:55.337Z,9.78
2022-12-20T04:43:01.190Z,9.77
2022-12-20T04:45:29.066Z,9.78
2022-12-20T04:47:57.211Z,9.79
2022-12-20T04:50:33.919Z,9.80
2022-12-20T04:53:20.482Z,9.76
2022-12-20T04:55:50.208Z,9.75
2022-12-20T04:58:18.447Z,9.77
2022-12-20T05:00:46.874Z,9.78
2022-12-20T05:03:27.759Z,9.77
2022-12-20T05:05:56.603Z,9.75
2022-12-20T05:08:25.093Z,9.75
2022-12-20T05:10:54.078Z,9.71
2022-12-20T05:13:22.881Z,9.71
2022-12-20T05:15:56.029Z,9.76
2022-12-20T05:18:27.687Z,9.75
2022-12-20T05:21:27.933Z,9.77
2022-12-20T05:24:14.775Z,9.77
2022-12-20T05:27:00.978Z,9.74
2022-12-20T05:29:28.905Z,9.74
2022-12-20T05:31:56.813Z,9.78
2022-12-20T05:34:24.881Z,9.75
2022-12-20T05:36:54.873Z,9.77
2022-12-20T05:39:25.105Z,9.79
2022-12-20T05:41:55.928Z,9.79
2022-12-20T05:44:26.217Z,9.84
2022-12-20T05:46:57.304Z,9.82
2022-12-20T05:49:29.693Z,9.87
2022-12-20T05:52:01.782Z,9.89
2022-12-20T05:54:30.097Z,9.92
2022-12-20T05:57:06.121Z,9.94
2022-12-20T05:59:38.113Z,9.94
2022-12-20T06:02:10.637Z,9.88
2022-12-20T06:04:38.769Z,9.77
2022-12-20T06:07:14.393Z,9.69
2022-12-20T06:09:43.964Z,9.64
2022-12-20T06:12:15.164Z,9.60
2022-12-20T06:14:43.610Z,9.60
2022-12-20T06:17:13.814Z,9.57
2022-12-20T06:19:41.689Z,9.54
2022-12-20T06:22:11.617Z,9.52
2022-12-20T06:24:56.358Z,9.62
2022-12-20T06:27:28.133Z,9.65
2022-12-20T06:30:09.893Z,9.70
2022-12-20T06:32:56.451Z,9.69
2022-12-20T06:35:24.437Z,9.74
2022-12-20T06:37:55.609Z,9.74
2022-12-20T06:40:23.896Z,9.75
2022-12-20T06:42:51.783Z,9.75
2022-12-20T06:45:22.869Z,9.79
2022-12-20T06:47:50.881Z,9.83
2022-12-20T06:50:18.624Z,9.80
2022-12-20T06:52:46.322Z,9.85
2022-12-20T06:55:14.244Z,9.90
2022-12-20T06:57:43.042Z,9.89
2022-12-20T07:00:12.810Z,9.91
2022-12-20T07:02:40.590Z,9.91
2022-12-20T07:05:09.003Z,9.90
2022-12-20T07:07:44.384Z,9.91
2022-12-20T07:10:12.889Z,9.89
2022-12-20T07:12:47.198Z,9.97
2022-12-20T07:15:16.882Z,9.98
2022-12-20T07:17:45.216Z,10.02
2022-12-20T07:20:14.330Z,10.06
2022-12-20T07:22:42.451Z,10.04
2022-12-20T07:25:11.628Z,10.00
2022-12-20T07:27:39.641Z,9.95
2022-12-20T07:30:08.266Z,9.98
2022-12-20T07:32:36.057Z,9.98
2022-12-20T07:35:03.821Z,10.04
2022-12-20T07:37:31.584Z,10.03
2022-12-20T07:39:59.403Z,10.05
2022-12-20T07:42:29.055Z,10.04
2022-12-20T07:45:03.727Z,10.05
2022-12-20T07:47:31.461Z,10.07
2022-12-20T07:49:59.099Z,10.09
2022-12-20T07:52:29.890Z,10.13
2022-12-20T07:55:01.604Z,10.14
2022-12-20T07:57:44.965Z,10.15
2022-12-20T08:00:13.921Z,10.12
2022-12-20T08:03:16.386Z,10.06
2022-12-20T08:05:48.891Z,10.01
2022-12-20T08:08:17.552Z,10.06
2022-12-20T08:10:46.698Z,10.10
2022-12-20T08:13:15.260Z,10.16
2022-12-20T08:15:43.046Z,10.19
2022-12-20T08:18:10.772Z,10.20
2022-12-20T08:20:38.698Z,10.21
2022-12-20T08:23:06.371Z,10.25
2022-12-20T08:25:41.204Z,10.33
2022-12-20T08:28:09.932Z,10.40
2022-12-20T08:30:38.000Z,10.46
2022-12-20T08:33:06.057Z,10.49
2022-12-20T08:35:34.106Z,10.56
2022-12-20T08:38:01.811Z,10.61
2022-12-20T08:40:29.576Z,10.69
2022-12-20T08:42:58.602Z,10.75
2022-12-20T08:45:26.655Z,10.74
2022-12-20T08:47:55.068Z,10.76
2022-12-20T08:50:22.807Z,10.81
2022-12-20T08:52:50.613Z,10.83
2022-12-20T08:55:22.031Z,10.85
2022-12-20T08:57:52.612Z,10.84
2022-12-20T09:00:21.138Z,10.90
2022-12-20T09:02:50.909Z,10.94
2022-12-20T09:05:18.745Z,10.94
2022-12-20T09:07:47.632Z,10.93
2022-12-20T09:10:15.487Z,10.93
2022-12-20T09:12:43.344Z,10.96
2022-12-20T09:15:11.815Z,10.97
2022-12-20T09:17:39.475Z,10.99
2022-12-20T09:20:08.119Z,11.02
2022-12-20T09:22:35.790Z,11.07
2022-12-20T09:25:03.561Z,11.10
2022-12-20T09:27:31.301Z,11.15
2022-12-20T09:29:59.199Z,11.20
2022-12-20T09:32:26.851Z,11.23
2022-12-20T09:34:54.506Z,11.28
2022-12-20T09:37:22.314Z,11.31
2022-12-20T09:39:51.406Z,11.35
2022-12-20T09:42:25.694Z,11.44
2022-12-20T09:45:03.427Z,11.47
2022-12-20T09:47:34.689Z,11.52
2022-12-20T09:50:05.019Z,11.54
2022-12-20T09:52:51.875Z,11.65
2022-12-20T09:55:43.456Z,11.69
2022-12-20T09:58:41.737Z,11.73
2022-12-20T10:01:25.585Z,11.78
2022-12-20T10:03:56.063Z,11.84
2022-12-20T10:07:14.635Z,11.96
2022-12-20T10:09:58.197Z,12.01
2022-12-20T10:12:46.328Z,12.11
2022-12-20T10:15:26.644Z,12.18
2022-12-20T10:18:06.742Z,12.23
2022-12-20T10:21:08.786Z,12.27
2022-12-20T10:23:58.206Z,12.10
2022-12-20T10:26:26.041Z,12.19
2022-12-20T10:28:54.726Z,12.25
2022-12-20T10:31:23.242Z,12.28
2022-12-20T10:33:51.035Z,12.29
2022-12-20T10:36:28.813Z,12.35
2022-12-20T10:39:09.262Z,12.34
2022-12-20T10:41:57.112Z,12.33
2022-12-20T10:44:44.865Z,12.34
2022-12-20T10:47:35.879Z,12.39
2022-12-20T10:50:21.536Z,12.38
2022-12-20T10:53:11.295Z,12.40
2022-12-20T10:55:42.473Z,12.40
2022-12-20T10:58:35.405Z,12.40
2022-12-20T11:01:20.062Z,12.40
2022-12-20T11:04:05.009Z,12.40
2022-12-20T11:06:38.891Z,12.42
2022-12-20T11:09:52.153Z,12.41
2022-12-20T11:12:20.221Z,12.36
2022-12-20T11:14:49.380Z,12.40
2022-12-20T11:17:48.819Z,12.42
2022-12-20T11:20:26.508Z,12.42
2022-12-20T11:23:16.059Z,12.40
2022-12-20T11:26:18.563Z,12.41
2022-12-20T11:29:03.926Z,12.39
2022-12-20T11:32:08.273Z,12.42
2022-12-20T11:35:07.871Z,12.43
2022-12-20T11:38:05.557Z,12.43
2022-12-20T11:41:14.278Z,12.42
2022-12-20T11:44:25.129Z,12.44
2022-12-20T11:47:39.801Z,12.47
2022-12-20T11:50:51.327Z,12.50
2022-12-20T11:53:26.785Z,12.51
2022-12-20T11:56:02.103Z,12.54
2022-12-20T11:58:42.386Z,12.59
2022-12-20T12:01:16.524Z,12.65
2022-12-20T12:03:57.994Z,12.69
2022-12-20T12:06:42.695Z,12.71
2022-12-20T12:09:23.473Z,12.74
2022-12-20T12:12:24.239Z,12.72
2022-12-20T12:15:17.430Z,12.76
2022-12-20T12:18:05.830Z,12.76
2022-12-20T12:21:08.519Z,12.75
2022-12-20T12:24:18.306Z,12.66
2022-12-20T12:26:46.359Z,12.68
2022-12-20T12:29:20.887Z,12.73
2022-12-20T12:32:34.930Z,12.75
2022-12-20T12:35:41.066Z,12.75
2022-12-20T12:38:33.833Z,12.79
2022-12-20T12:41:27.574Z,12.79
2022-12-20T12:44:05.440Z,12.80
2022-12-20T12:46:37.516Z,12.81
2022-12-20T12:49:17.609Z,12.87
2022-12-20T12:51:57.303Z,12.88
2022-12-20T12:54:31.199Z,12.90
2022-12-20T12:57:16.389Z,12.94
2022-12-20T12:59:50.549Z,12.95
2022-12-20T13:02:20.654Z,12.95
2022-12-20T13:05:09.006Z,12.95
2022-12-20T13:07:37.035Z,12.93
2022-12-20T13:10:20.195Z,12.98
2022-12-20T13:13:01.402Z,12.97
2022-12-20T13:15:30.338Z,12.98
2022-12-20T13:18:21.770Z,13.01
2022-12-20T13:21:31.157Z,12.98
2022-12-20T13:24:36.117Z,13.00
2022-12-20T13:27:35.630Z,13.01
2022-12-20T13:30:12.004Z,13.02
2022-12-20T13:32:49.069Z,13.01
2022-12-20T13:35:26.834Z,13.01
2022-12-20T13:38:24.886Z,12.99
2022-12-20T13:41:00.252Z,12.95
2022-12-20T13:43:44.739Z,12.96
2022-12-20T13:46:32.803Z,12.96
2022-12-20T13:49:04.347Z,12.89
2022-12-20T13:51:32.305Z,12.95
2022-12-20T13:54:07.874Z,12.96
2022-12-20T13:56:41.738Z,12.99
2022-12-20T13:59:31.704Z,13.00
2022-12-20T14:02:11.073Z,12.96
2022-12-20T14:04:46.529Z,12.93
2022-12-20T14:07:18.158Z,12.95
2022-12-20T14:09:55.008Z,12.76
2022-12-20T14:12:28.614Z,12.83
2022-12-20T14:14:59.809Z,12.85
2022-12-20T14:17:33.258Z,12.86
2022-12-20T14:20:15.996Z,12.85
2022-12-20T14:23:04.121Z,12.83
2022-12-20T14:25:44.650Z,12.86
2022-12-20T14:28:58.239Z,12.83
2022-12-20T14:31:41.060Z,12.83
2022-12-20T14:34:12.024Z,12.84
2022-12-20T14:36:50.669Z,12.83
2022-12-20T14:39:21.393Z,12.83
2022-12-20T14:42:00.193Z,12.82
2022-12-20T14:44:31.820Z,12.79
2022-12-20T14:47:34.135Z,12.81
2022-12-20T14:50:34.132Z,12.75
2022-12-20T14:53:03.025Z,12.67
2022-12-20T14:55:39.446Z,12.70
2022-12-20T14:58:23.923Z,12.65
2022-12-20T15:01:02.345Z,12.64
2022-12-20T15:03:30.598Z,12.63
2022-12-20T15:06:00.562Z,12.62
2022-12-20T15:08:33.124Z,12.63
2022-12-20T15:11:10.376Z,12.68
2022-12-20T15:13:46.744Z,12.65
2022-12-20T15:16:18.643Z,12.63
2022-12-20T15:18:53.761Z,12.48
2022-12-20T15:21:37.415Z,12.55
2022-12-20T15:24:11.750Z,12.58
2022-12-20T15:26:39.752Z,12.56
2022-12-20T15:29:15.118Z,12.55
2022-12-20T15:31:44.300Z,12.54
2022-12-20T15:34:38.466Z,12.55
2022-12-20T15:37:06.823Z,12.55
2022-12-20T15:39:34.748Z,12.53
2022-12-20T15:42:04.973Z,12.56
2022-12-20T15:44:35.981Z,12.56
2022-12-20T15:47:03.870Z,12.56
2022-12-20T15:49:34.444Z,12.59
2022-12-20T15:52:02.353Z,12.59
2022-12-20T15:54:32.786Z,12.56
2022-12-20T15:57:04.560Z,12.59
2022-12-20T15:59:59.085Z,12.44
2022-12-20T16:02:26.924Z,12.48
2022-12-20T16:04:55.637Z,12.47
2022-12-20T16:07:24.360Z,12.46
2022-12-20T16:09:52.645Z,12.42
2022-12-20T16:12:29.486Z,12.37
2022-12-20T16:14:57.665Z,12.28
2022-12-20T16:17:25.630Z,12.26
2022-12-20T16:19:53.585Z,12.24
2022-12-20T16:22:23.491Z,12.26
2022-12-20T16:24:52.063Z,12.24
2022-12-20T16:27:20.489Z,12.22
2022-12-20T16:29:48.576Z,12.28
2022-12-20T16:32:21.754Z,12.29
2022-12-20T16:34:50.083Z,12.30
2022-12-20T16:37:18.088Z,12.34
2022-12-20T16:39:45.803Z,12.38
2022-12-20T16:42:33.473Z,12.35
2022-12-20T16:45:01.504Z,12.41
2022-12-20T16:47:29.455Z,12.42
2022-12-20T16:49:57.153Z,12.44
2022-12-20T16:52:25.099Z,12.46
2022-12-20T16:54:53.901Z,12.45
2022-12-20T16:57:22.032Z,12.44
2022-12-20T16:59:49.870Z,12.44
2022-12-20T17:02:29.193Z,12.49
2022-12-20T17:04:57.568Z,12.43
2022-12-20T17:07:27.522Z,12.43
2022-12-20T17:09:55.216Z,12.45
2022-12-20T17:12:23.522Z,12.49
2022-12-20T17:14:51.340Z,12.49
2022-12-20T17:17:19.204Z,12.51
2022-12-20T17:19:46.969Z,12.48
2022-12-20T17:25:02.591Z,12.43
2022-12-20T17:27:30.503Z,12.35
2022-12-20T17:29:58.359Z,12.29
2022-12-20T17:32:26.406Z,12.29
2022-12-20T17:34:54.540Z,12.27
2022-12-20T17:37:22.697Z,12.23
2022-12-20T17:39:50.438Z,12.19
2022-12-20T17:42:18.236Z,12.20
2022-12-20T17:44:49.186Z,12.22
2022-12-20T17:47:17.371Z,12.24
2022-12-20T17:49:45.254Z,12.26
2022-12-20T17:52:16.306Z,12.28
2022-12-20T17:54:44.075Z,12.26
2022-12-20T17:57:16.457Z,12.28
2022-12-20T17:59:44.986Z,12.23
2022-12-20T18:02:22.568Z,12.18
2022-12-20T18:04:51.598Z,12.10
2022-12-20T18:07:19.690Z,12.05
2022-12-20T18:09:49.117Z,12.07
2022-12-20T18:12:17.855Z,12.06
2022-12-20T18:14:47.666Z,12.08
2022-12-20T18:17:15.662Z,12.06
2022-12-20T18:19:43.926Z,12.09
2022-12-20T18:22:12.214Z,12.13
2022-12-20T18:24:40.598Z,12.19
2022-12-20T18:27:08.382Z,12.20
2022-12-20T18:29:36.368Z,12.22
2022-12-20T18:32:04.904Z,12.24
2022-12-20T18:34:33.011Z,12.26
2022-12-20T18:37:01.953Z,12.30
2022-12-20T18:39:29.909Z,12.29
2022-12-20T18:41:57.878Z,12.27
2022-12-20T18:44:25.689Z,12.27
2022-12-20T18:46:54.690Z,12.28
2022-12-20T18:49:23.690Z,12.28
2022-12-20T18:51:51.506Z,12.29
2022-12-20T18:54:19.297Z,12.26
2022-12-20T18:56:49.015Z,12.29
2022-12-20T18:59:16.988Z,12.25
2022-12-20T19:01:44.829Z,12.29
2022-12-20T19:04:14.288Z,12.29
2022-12-20T19:06:43.799Z,12.28
2022-12-20T19:09:13.881Z,12.34
2022-12-20T19:11:43.135Z,12.33
2022-12-20T19:14:12.834Z,12.35
2022-12-20T19:16:41.069Z,12.30
2022-12-20T19:19:10.002Z,12.28
2022-12-20T19:21:42.877Z,12.29
2022-12-20T19:24:11.709Z,12.27
2022-12-20T19:26:40.465Z,12.20
2022-12-20T19:29:09.367Z,12.23
2022-12-20T19:31:38.277Z,12.23
2022-12-20T19:34:10.669Z,12.27
2022-12-20T19:36:45.091Z,12.26
2022-12-20T19:39:23.050Z,12.29
2022-12-20T19:42:22.212Z,12.32
2022-12-20T19:44:40.691Z,12.26
2022-12-20T19:47:09.132Z,12.33
2022-12-20T19:49:40.044Z,12.31
2022-12-20T19:52:08.086Z,12.28
2022-12-20T19:54:36.151Z,12.34
2022-12-20T19:57:04.269Z,12.35
2022-12-20T19:59:32.411Z,12.37
2022-12-20T20:02:00.659Z,12.38
2022-12-20T20:04:29.427Z,12.40
2022-12-20T20:06:57.991Z,12.44
2022-12-20T20:09:25.896Z,12.45
2022-12-20T20:11:54.302Z,12.45
2022-12-20T20:14:22.535Z,12.43
2022-12-20T20:16:50.983Z,12.41
2022-12-20T20:19:20.522Z,12.43
2022-12-20T20:21:49.664Z,12.44
2022-12-20T20:24:18.058Z,12.45
2022-12-20T20:26:46.214Z,12.46
2022-12-20T20:29:14.393Z,12.49
2022-12-20T20:31:42.637Z,12.48
2022-12-20T20:34:10.952Z,12.49
2022-12-20T20:36:39.607Z,12.48
2022-12-20T20:39:08.111Z,12.46
2022-12-20T20:41:36.229Z,12.45
2022-12-20T20:44:04.539Z,12.39
2022-12-20T20:46:33.063Z,12.37
2022-12-20T20:49:01.407Z,12.35
2022-12-20T20:51:29.639Z,12.32
2022-12-20T20:53:58.462Z,12.31
2022-12-20T20:56:26.590Z,12.32
2022-12-20T20:59:02.891Z,12.29
2022-12-20T21:01:34.392Z,12.31
2022-12-20T21:04:02.960Z,12.32
2022-12-20T21:06:39.955Z,12.32
2022-12-20T21:09:09.563Z,12.32
2022-12-20T21:11:38.000Z,12.32
2022-12-20T21:14:06.471Z,12.34
2022-12-20T21:16:34.682Z,12.34
2022-12-20T21:19:03.160Z,12.33
2022-12-20T21:21:31.129Z,12.35
2022-12-20T21:23:59.209Z,12.33
2022-12-20T21:26:27.453Z,12.31
2022-12-20T21:29:01.448Z,12.30
2022-12-20T21:31:30.872Z,12.23
2022-12-20T21:33:59.423Z,12.23
2022-12-20T21:36:27.542Z,12.21
2022-12-20T21:38:57.824Z,12.24
2022-12-20T21:41:28.662Z,12.26
2022-12-20T21:43:59.064Z,12.25
2022-12-20T21:46:29.575Z,12.29
2022-12-20T21:48:58.779Z,12.28
2022-12-20T21:51:29.002Z,12.32
2022-12-20T21:54:02.424Z,12.33
2022-12-20T21:56:33.099Z,12.37
2022-12-20T21:59:02.486Z,12.38
2022-12-20T22:01:31.747Z,12.39
2022-12-20T22:04:05.700Z,12.48
2022-12-20T22:06:36.782Z,12.47
2022-12-20T22:09:09.243Z,12.46
2022-12-20T22:11:38.107Z,12.45
2022-12-20T22:14:06.849Z,12.49
2022-12-20T22:16:35.382Z,12.49
2022-12-20T22:19:04.289Z,12.46
2022-12-20T22:21:34.312Z,12.47
2022-12-20T22:24:03.054Z,12.46
2022-12-20T22:26:33.601Z,12.49
2022-12-20T22:29:07.039Z,12.47
2022-12-20T22:31:36.653Z,12.48
2022-12-20T22:34:05.058Z,12.50
2022-12-20T22:36:33.159Z,12.49
2022-12-20T22:39:01.254Z,12.53
2022-12-20T22:41:34.492Z,12.54
2022-12-20T22:44:02.981Z,12.53
2022-12-20T22:46:31.909Z,12.52
2022-12-20T22:48:59.878Z,12.55
2022-12-20T22:51:30.931Z,12.56
2022-12-20T22:54:00.078Z,12.54
2022-12-20T22:56:28.508Z,12.51
2022-12-20T22:58:57.490Z,12.59
2022-12-20T23:01:26.253Z,12.59
2022-12-20T23:03:54.426Z,12.61
2022-12-20T23:06:23.383Z,12.59
2022-12-20T23:08:51.474Z,12.57
2022-12-20T23:11:45.171Z,12.62
2022-12-20T23:14:40.600Z,12.53
2022-12-20T23:17:10.998Z,12.60
2022-12-20T23:19:58.190Z,12.63
2022-12-20T23:22:39.062Z,12.63
2022-12-20T23:25:15.597Z,12.66
2022-12-20T23:27:46.486Z,12.64
2022-12-20T23:30:20.392Z,12.59
2022-12-20T23:32:49.495Z,12.59
2022-12-20T23:35:26.118Z,12.68
2022-12-20T23:37:58.950Z,12.67
2022-12-20T23:40:26.804Z,12.59
2022-12-20T23:42:55.437Z,12.62
2022-12-20T23:45:23.202Z,12.67
2022-12-20T23:47:51.945Z,12.66
2022-12-20T23:50:20.350Z,12.67
2022-12-20T23:52:50.320Z,12.72
2022-12-20T23:55:18.568Z,12.70
2022-12-20T23:57:46.562Z,12.74
